Terminal Aerodrome Forecast
Issued by NWS

Home | Current Version | Previous Version | Text Only | Print | Product List | Glossary On
Versions: 1 2 3 4 5 6 7 8 9 10 11 12 13
028
FTUS46 KMTR 301120
TAFSTS
TAF
KSTS 301120Z 3012/0112 34012KT P6SM SKC
     FM301600 35015G21KT P6SM SKC
     FM302100 33008G15KT P6SM SKC
     FM010400 34004KT P6SM SKC=

USA.gov is the U.S. government's official web portal to all federal, state and local government web resources and services.